createdAt,value
2022-09-06T00:00:32.291Z,18.20
2022-09-06T00:03:01.201Z,21.27
2022-09-06T00:05:30.183Z,19.57
2022-09-06T00:08:00.767Z,16.63
2022-09-06T00:10:31.122Z,19.03
2022-09-06T00:13:03.365Z,19.50
2022-09-06T00:15:34.146Z,19.97
2022-09-06T00:18:04.025Z,17.37
2022-09-06T00:20:34.666Z,16.80
2022-09-06T00:23:05.696Z,19.57
2022-09-06T00:25:34.677Z,16.20
2022-09-06T00:28:05.882Z,18.10
2022-09-06T00:30:35.851Z,19.13
2022-09-06T00:33:04.432Z,24.10
2022-09-06T00:35:32.991Z,23.17
2022-09-06T00:38:02.971Z,19.40
2022-09-06T00:40:33.781Z,22.57
2022-09-06T00:43:02.335Z,22.40
2022-09-06T00:45:32.182Z,18.97
2022-09-06T00:48:05.873Z,21.00
2022-09-06T00:50:34.969Z,23.30
2022-09-06T00:53:03.902Z,21.13
2022-09-06T00:55:32.520Z,18.50
2022-09-06T00:58:01.072Z,20.17
2022-09-06T01:00:29.595Z,26.10
2022-09-06T01:02:58.107Z,17.20
2022-09-06T01:05:36.378Z,25.97
2022-09-06T01:08:26.410Z,18.50
2022-09-06T01:11:11.369Z,21.67
2022-09-06T01:13:51.607Z,20.20
2022-09-06T01:16:28.719Z,28.10
2022-09-06T01:19:13.521Z,20.47
2022-09-06T01:21:51.155Z,21.33
2022-09-06T01:24:51.518Z,19.60
2022-09-06T01:27:43.292Z,20.13
2022-09-06T01:30:14.117Z,19.23
2022-09-06T01:32:52.013Z,18.93
2022-09-06T01:35:29.994Z,17.50
2022-09-06T01:37:59.785Z,23.80
2022-09-06T01:40:28.886Z,24.63
2022-09-06T01:42:59.692Z,22.60
2022-09-06T01:45:39.558Z,20.17
2022-09-06T01:48:17.913Z,22.87
2022-09-06T01:50:54.514Z,23.90
2022-09-06T01:53:43.007Z,17.70
2022-09-06T01:56:23.141Z,18.80
2022-09-06T01:59:11.127Z,20.37
2022-09-06T02:01:50.267Z,25.30
2022-09-06T02:04:27.523Z,22.60
2022-09-06T02:07:01.197Z,22.53
2022-09-06T02:09:34.728Z,23.93
2022-09-06T02:12:04.820Z,20.87
2022-09-06T02:14:40.396Z,20.30
2022-09-06T02:17:13.004Z,21.53
2022-09-06T02:19:45.773Z,20.57
2022-09-06T02:22:19.761Z,20.40
2022-09-06T02:24:51.754Z,20.63
2022-09-06T02:27:20.589Z,24.70
2022-09-06T02:29:50.689Z,27.20
2022-09-06T02:32:22.931Z,21.20
2022-09-06T02:34:53.170Z,19.43
2022-09-06T02:37:22.001Z,18.07
2022-09-06T02:39:50.496Z,19.67
2022-09-06T02:42:19.104Z,19.37
2022-09-06T02:44:49.205Z,18.60
2022-09-06T02:47:17.871Z,18.87
2022-09-06T02:49:46.344Z,20.47
2022-09-06T02:52:15.625Z,22.73
2022-09-06T02:54:44.140Z,20.10
2022-09-06T02:57:12.833Z,24.97
2022-09-06T02:59:41.332Z,22.10
2022-09-06T03:02:11.318Z,20.80
2022-09-06T03:04:39.819Z,17.73
2022-09-06T03:07:08.331Z,21.47
2022-09-06T03:09:36.900Z,25.73
2022-09-06T03:12:05.854Z,20.30
2022-09-06T03:14:36.049Z,19.20
2022-09-06T03:17:04.997Z,20.77
2022-09-06T03:19:34.896Z,27.50
2022-09-06T03:22:03.404Z,24.47
2022-09-06T03:24:31.927Z,28.30
2022-09-06T03:27:00.449Z,21.73
2022-09-06T03:29:28.954Z,23.40
2022-09-06T03:31:57.547Z,21.47
2022-09-06T03:34:26.186Z,24.17
2022-09-06T03:36:56.118Z,26.30
2022-09-06T03:39:24.808Z,27.90
2022-09-06T03:41:53.507Z,25.33
2022-09-06T03:44:22.085Z,27.47
2022-09-06T03:46:51.591Z,28.80
2022-09-06T03:49:20.100Z,22.83
2022-09-06T03:51:48.858Z,28.33
2022-09-06T03:54:18.830Z,34.53
2022-09-06T03:56:47.322Z,23.33
2022-09-06T03:59:15.886Z,31.13
2022-09-06T04:01:44.486Z,26.20
2022-09-06T04:04:13.183Z,25.00
2022-09-06T04:06:41.708Z,28.07
2022-09-06T04:09:10.234Z,29.07
2022-09-06T04:11:40.135Z,27.47
2022-09-06T04:14:08.627Z,29.70
2022-09-06T04:16:37.291Z,25.97
2022-09-06T04:19:05.918Z,27.73
2022-09-06T04:21:34.624Z,26.53
2022-09-06T04:24:03.472Z,26.10
2022-09-06T04:26:32.281Z,25.33
2022-09-06T04:29:02.279Z,25.47
2022-09-06T04:31:30.834Z,25.83
2022-09-06T04:33:59.510Z,25.23
2022-09-06T04:36:28.077Z,26.00
2022-09-06T04:38:56.772Z,33.37
2022-09-06T04:41:25.257Z,23.77
2022-09-06T04:43:53.740Z,20.17
2022-09-06T04:46:25.952Z,23.73
2022-09-06T04:48:55.941Z,24.80
2022-09-06T04:51:25.293Z,41.73
2022-09-06T04:53:54.306Z,23.93
2022-09-06T04:56:24.695Z,19.87
2022-09-06T04:58:54.818Z,26.40
2022-09-06T05:01:26.255Z,25.97
2022-09-06T05:03:56.921Z,22.07
2022-09-06T05:06:26.337Z,29.23
2022-09-06T05:08:54.841Z,31.60
2022-09-06T05:11:23.412Z,20.23
2022-09-06T05:13:51.961Z,22.97
2022-09-06T05:16:20.644Z,25.13
2022-09-06T05:18:50.580Z,20.00
2022-09-06T05:21:19.265Z,16.93
2022-09-06T05:23:47.779Z,22.77
2022-09-06T05:26:16.447Z,19.33
2022-09-06T05:28:45.031Z,19.53
2022-09-06T05:31:24.464Z,20.40
2022-09-06T05:33:54.981Z,19.60
2022-09-06T05:36:23.659Z,21.57
2022-09-06T05:38:52.841Z,15.50
2022-09-06T05:41:21.916Z,16.53
2022-09-06T05:43:50.587Z,15.47
2022-09-06T05:46:19.832Z,16.50
2022-09-06T05:48:55.376Z,21.43
2022-09-06T05:51:24.263Z,15.53
2022-09-06T05:53:52.769Z,18.47
2022-09-06T05:56:22.312Z,13.83
2022-09-06T05:58:50.869Z,16.73
2022-09-06T06:01:21.635Z,16.37
2022-09-06T06:03:57.208Z,20.13
2022-09-06T06:06:27.489Z,14.10
2022-09-06T06:08:56.828Z,16.50
2022-09-06T06:11:26.963Z,14.00
2022-09-06T06:13:55.652Z,17.07
2022-09-06T06:16:25.447Z,14.10
2022-09-06T06:18:55.641Z,14.43
2022-09-06T06:21:26.007Z,14.73
2022-09-06T06:23:56.253Z,16.00
2022-09-06T06:26:25.559Z,20.13
2022-09-06T06:28:55.560Z,15.93
2022-09-06T06:31:24.253Z,13.70
2022-09-06T06:33:53.060Z,18.53
2022-09-06T06:36:25.283Z,25.87
2022-09-06T06:38:55.508Z,16.33
2022-09-06T06:41:26.658Z,20.63
2022-09-06T06:43:56.071Z,14.87
2022-09-06T06:46:26.976Z,13.30
2022-09-06T06:48:55.692Z,25.27
2022-09-06T06:51:28.271Z,13.13
2022-09-06T06:53:57.819Z,18.77
2022-09-06T06:56:28.072Z,13.13
2022-09-06T06:58:58.447Z,37.90
2022-09-06T07:01:29.117Z,12.70
2022-09-06T07:03:58.145Z,16.87
2022-09-06T07:09:19.231Z,16.07
2022-09-06T07:11:49.311Z,16.40
2022-09-06T07:14:18.101Z,28.73
2022-09-06T07:16:47.175Z,12.67
2022-09-06T07:22:06.409Z,12.90
2022-09-06T07:24:35.527Z,11.83
2022-09-06T07:29:52.464Z,16.57
2022-09-06T07:32:21.176Z,12.67
2022-09-06T07:34:49.647Z,12.20
2022-09-06T07:37:19.658Z,16.73
2022-09-06T07:39:48.343Z,23.70
2022-09-06T07:42:17.334Z,15.27
2022-09-06T07:44:45.822Z,14.03
2022-09-06T07:53:13.021Z,12.40
2022-09-06T07:55:42.783Z,13.80
2022-09-06T07:58:11.231Z,18.23
2022-09-06T08:00:41.255Z,12.73
2022-09-06T08:03:10.281Z,15.10
2022-09-06T08:11:17.629Z,13.63
2022-09-06T08:13:47.353Z,20.10
2022-09-06T08:16:17.009Z,19.90
2022-09-06T08:18:45.550Z,14.23
2022-09-06T08:21:15.655Z,15.43
2022-09-06T08:23:48.141Z,14.00
2022-09-06T08:26:16.931Z,12.77
2022-09-06T08:28:45.689Z,15.20
2022-09-06T08:31:16.000Z,17.60
2022-09-06T08:33:45.545Z,12.50
2022-09-06T08:36:14.608Z,11.80
2022-09-06T08:38:44.718Z,11.10
2022-09-06T08:41:24.543Z,11.27
2022-09-06T08:46:53.793Z,12.50
2022-09-06T08:49:22.647Z,10.90
2022-09-06T08:52:24.695Z,13.83
2022-09-06T08:55:06.269Z,10.47
2022-09-06T08:57:52.973Z,11.27
2022-09-06T09:00:23.152Z,11.47
2022-09-06T09:02:56.175Z,10.17
2022-09-06T09:05:27.691Z,14.90
2022-09-06T09:08:06.422Z,8.67
2022-09-06T09:10:43.463Z,14.10
2022-09-06T09:13:21.641Z,17.00
2022-09-06T09:15:50.238Z,14.73
2022-09-06T09:18:24.594Z,10.27
2022-09-06T09:20:53.541Z,9.33
2022-09-06T09:23:22.030Z,10.30
2022-09-06T09:25:53.750Z,9.17
2022-09-06T09:28:24.643Z,9.53
2022-09-06T09:30:55.077Z,11.80
2022-09-06T09:33:27.794Z,12.63
2022-09-06T09:35:57.393Z,13.20
2022-09-06T09:38:29.019Z,15.53
2022-09-06T09:41:01.446Z,14.23
2022-09-06T09:43:32.988Z,11.87
2022-09-06T09:46:13.577Z,10.50
2022-09-06T09:48:44.459Z,12.00
2022-09-06T09:51:26.726Z,10.87
2022-09-06T09:53:57.616Z,10.13
2022-09-06T09:56:36.788Z,10.70
2022-09-06T09:59:16.338Z,8.90
2022-09-06T10:01:44.845Z,20.77
2022-09-06T10:07:12.564Z,10.97
2022-09-06T10:09:43.848Z,9.90
2022-09-06T10:12:19.442Z,8.37
2022-09-06T10:14:50.019Z,11.57
2022-09-06T10:17:28.873Z,12.43
2022-09-06T10:19:58.384Z,8.93
2022-09-06T10:22:31.464Z,8.23
2022-09-06T10:25:19.833Z,8.40
2022-09-06T10:28:11.428Z,13.23
2022-09-06T10:30:53.033Z,8.17
2022-09-06T10:33:31.971Z,7.63
2022-09-06T10:36:03.078Z,11.80
2022-09-06T10:38:42.788Z,8.23
2022-09-06T10:41:33.154Z,9.83
2022-09-06T10:44:13.700Z,7.47
2022-09-06T10:46:44.969Z,7.37
2022-09-06T10:49:18.838Z,8.37
2022-09-06T10:51:50.717Z,7.63
2022-09-06T10:54:22.156Z,9.40
2022-09-06T10:56:56.180Z,14.03
2022-09-06T10:59:38.068Z,6.43
2022-09-06T11:02:17.744Z,26.67
2022-09-06T11:07:42.741Z,17.03
2022-09-06T11:10:17.513Z,9.80
2022-09-06T11:12:50.944Z,9.97
2022-09-06T11:15:23.060Z,7.37
2022-09-06T11:17:56.547Z,12.80
2022-09-06T11:20:32.185Z,6.53
2022-09-06T11:23:29.055Z,8.20
2022-09-06T11:26:11.852Z,7.87
2022-09-06T11:28:44.718Z,7.50
2022-09-06T11:34:23.307Z,8.87
2022-09-06T11:36:53.714Z,8.07
2022-09-06T11:43:03.090Z,9.40
2022-09-06T11:45:44.205Z,7.70
2022-09-06T11:49:03.882Z,7.20
2022-09-06T11:51:36.579Z,9.13
2022-09-06T11:54:25.219Z,12.90
2022-09-06T11:56:58.697Z,25.67
2022-09-06T11:59:43.195Z,8.67
2022-09-06T12:02:31.731Z,7.80
2022-09-06T12:05:18.124Z,9.50
2022-09-06T12:08:29.619Z,9.57
2022-09-06T12:11:22.348Z,9.80
2022-09-06T12:13:55.953Z,10.57
2022-09-06T12:16:25.126Z,7.40
2022-09-06T12:19:01.418Z,9.33
2022-09-06T12:21:41.929Z,9.73
2022-09-06T12:24:31.404Z,10.73
2022-09-06T12:27:15.698Z,6.60
2022-09-06T12:29:54.959Z,8.73
2022-09-06T12:32:36.633Z,6.40
2022-09-06T12:38:00.527Z,6.20
2022-09-06T12:40:32.471Z,6.17
2022-09-06T12:43:04.903Z,8.10
2022-09-06T12:45:33.769Z,6.80
2022-09-06T12:48:08.598Z,9.87
2022-09-06T12:50:37.514Z,9.97
2022-09-06T12:53:23.394Z,6.27
2022-09-06T12:56:05.436Z,7.63
2022-09-06T12:58:35.922Z,8.43
2022-09-06T13:01:12.406Z,6.00
2022-09-06T13:03:45.362Z,6.00
2022-09-06T13:06:22.229Z,5.10
2022-09-06T13:08:57.073Z,11.50
2022-09-06T13:11:31.560Z,6.77
2022-09-06T13:14:03.927Z,6.70
2022-09-06T13:16:38.020Z,12.03
2022-09-06T13:19:14.153Z,7.10
2022-09-06T13:21:44.368Z,19.03
2022-09-06T13:24:25.070Z,6.80
2022-09-06T13:26:54.369Z,9.97
2022-09-06T13:29:31.446Z,9.40
2022-09-06T13:32:02.328Z,10.43
2022-09-06T13:34:32.849Z,6.70
2022-09-06T13:37:04.930Z,8.53
2022-09-06T13:39:37.472Z,12.00
2022-09-06T13:42:08.590Z,6.40
2022-09-06T13:44:39.976Z,5.80
2022-09-06T13:47:08.693Z,2.23
2022-09-06T13:49:37.168Z,2.07
2022-09-06T13:52:07.257Z,10.87
2022-09-06T13:54:36.662Z,2.13
2022-09-06T13:57:05.323Z,1.80
2022-09-06T13:59:33.846Z,3.77
2022-09-06T14:02:07.677Z,2.07
2022-09-06T14:04:36.672Z,2.80
2022-09-06T14:07:05.750Z,3.70
2022-09-06T14:09:34.330Z,3.97
2022-09-06T14:12:03.307Z,6.80
2022-09-06T14:14:31.994Z,4.27
2022-09-06T14:17:00.701Z,4.70
2022-09-06T14:19:30.715Z,2.70
2022-09-06T14:21:59.324Z,4.50
2022-09-06T14:24:27.853Z,6.77
2022-09-06T14:26:56.463Z,2.00
2022-09-06T14:29:25.005Z,2.60
2022-09-06T14:31:53.604Z,3.20
2022-09-06T14:34:22.190Z,3.60
2022-09-06T14:36:52.413Z,4.20
2022-09-06T14:39:21.120Z,5.80
2022-09-06T14:41:50.552Z,4.33
2022-09-06T14:44:19.123Z,5.33
2022-09-06T14:46:49.090Z,19.47
2022-09-06T14:49:17.722Z,2.63
2022-09-06T14:51:46.270Z,5.73
2022-09-06T14:54:16.850Z,3.90
2022-09-06T14:56:45.678Z,3.10
2022-09-06T14:59:14.578Z,6.10
2022-09-06T15:01:43.437Z,4.10
2022-09-06T15:04:13.429Z,4.67
2022-09-06T15:06:47.249Z,4.80
2022-09-06T15:09:17.904Z,4.43
2022-09-06T15:11:48.743Z,5.93
2022-09-06T15:14:18.848Z,8.10
2022-09-06T15:16:53.333Z,5.60
2022-09-06T15:19:24.622Z,9.67
2022-09-06T15:21:53.387Z,10.90
2022-09-06T15:24:23.460Z,5.43
2022-09-06T15:26:52.228Z,11.47
2022-09-06T15:29:21.418Z,6.17
2022-09-06T15:31:51.845Z,4.33
2022-09-06T15:34:21.703Z,6.13
2022-09-06T15:36:50.558Z,5.10
2022-09-06T15:39:19.943Z,4.63
2022-09-06T15:41:51.923Z,4.37
2022-09-06T15:44:21.930Z,7.50
2022-09-06T15:46:54.286Z,5.70
2022-09-06T15:49:28.569Z,5.20
2022-09-06T15:51:58.204Z,9.03
2022-09-06T15:54:41.025Z,5.07
2022-09-06T15:57:11.447Z,9.60
2022-09-06T15:59:41.579Z,8.63
2022-09-06T16:02:10.657Z,6.23
2022-09-06T16:04:39.311Z,9.77
2022-09-06T16:07:08.051Z,5.93
2022-09-06T16:09:36.605Z,6.90
2022-09-06T16:12:05.773Z,8.77
2022-09-06T16:14:35.857Z,7.33
2022-09-06T16:17:04.562Z,9.00
2022-09-06T16:19:33.197Z,8.57
2022-09-06T16:22:02.818Z,9.40
2022-09-06T16:24:31.466Z,12.37
2022-09-06T16:27:00.612Z,8.63
2022-09-06T16:29:29.276Z,16.23
2022-09-06T16:32:00.706Z,10.90
2022-09-06T16:34:29.327Z,10.50
2022-09-06T16:36:57.913Z,9.93
2022-09-06T16:39:26.549Z,11.63
2022-09-06T16:41:55.393Z,11.73
2022-09-06T16:44:24.011Z,14.10
2022-09-06T16:46:53.718Z,11.73
2022-09-06T16:49:24.196Z,10.80
2022-09-06T16:51:52.752Z,16.40
2022-09-06T16:54:21.669Z,12.73
2022-09-06T16:56:50.438Z,13.63
2022-09-06T16:59:19.047Z,12.80
2022-09-06T17:01:47.817Z,13.13
2022-09-06T17:04:16.802Z,14.87
2022-09-06T17:06:47.085Z,20.43
2022-09-06T17:09:18.623Z,14.00
2022-09-06T17:11:49.827Z,16.00
2022-09-06T17:14:18.625Z,14.87
2022-09-06T17:17:04.545Z,22.07
2022-09-06T17:19:35.766Z,16.10
2022-09-06T17:22:06.383Z,16.37
2022-09-06T17:24:35.045Z,16.80
2022-09-06T17:27:03.638Z,17.87
2022-09-06T17:29:32.623Z,18.63
2022-09-06T17:32:02.144Z,18.80
2022-09-06T17:34:30.833Z,19.87
2022-09-06T17:36:59.411Z,19.70
2022-09-06T17:39:29.431Z,23.13
2022-09-06T17:41:58.232Z,25.80
2022-09-06T17:44:28.162Z,27.33
2022-09-06T17:47:11.916Z,27.20
2022-09-06T17:49:41.318Z,24.30
2022-09-06T17:52:10.094Z,22.60
2022-09-06T17:54:40.077Z,24.00
2022-09-06T17:57:08.705Z,22.20
2022-09-06T17:59:38.521Z,29.03
2022-09-06T18:02:09.910Z,29.77
2022-09-06T18:04:38.638Z,31.63
2022-09-06T18:07:07.396Z,24.63
2022-09-06T18:09:37.036Z,23.07
2022-09-06T18:12:07.896Z,30.57
2022-09-06T18:14:36.894Z,28.20
2022-09-06T18:17:05.605Z,32.27
2022-09-06T18:19:34.127Z,27.83
2022-09-06T18:22:02.717Z,27.63
2022-09-06T18:24:31.306Z,33.23
2022-09-06T18:27:02.745Z,29.70
2022-09-06T18:29:33.038Z,35.47
2022-09-06T18:32:01.696Z,30.93
2022-09-06T18:34:30.328Z,31.00
2022-09-06T18:36:58.877Z,35.13
2022-09-06T18:39:27.633Z,37.63
2022-09-06T18:42:03.875Z,37.40
2022-09-06T18:44:35.296Z,34.03
2022-09-06T18:47:05.517Z,32.90
2022-09-06T18:49:34.916Z,34.20
2022-09-06T18:52:06.628Z,39.67
2022-09-06T18:54:35.840Z,39.10
2022-09-06T18:57:04.508Z,34.80
2022-09-06T18:59:34.457Z,40.90
2022-09-06T19:02:03.080Z,47.00
2022-09-06T19:04:32.089Z,44.03
2022-09-06T19:07:03.868Z,41.73
2022-09-06T19:09:32.675Z,35.60
2022-09-06T19:12:01.284Z,37.47
2022-09-06T19:14:29.829Z,40.73
2022-09-06T19:16:59.723Z,40.40
2022-09-06T19:19:28.324Z,37.50
2022-09-06T19:21:56.904Z,43.27
2022-09-06T19:24:25.681Z,41.60
2022-09-06T19:26:55.260Z,36.83
2022-09-06T19:29:24.057Z,38.90
2022-09-06T19:31:52.996Z,40.70
2022-09-06T19:34:26.086Z,37.60
2022-09-06T19:36:55.321Z,37.50
2022-09-06T19:39:31.147Z,37.17
2022-09-06T19:42:02.315Z,31.10
2022-09-06T19:44:31.072Z,30.23
2022-09-06T19:47:00.390Z,28.57
2022-09-06T19:49:30.903Z,27.20
2022-09-06T19:51:59.527Z,34.37
2022-09-06T19:54:28.610Z,32.73
2022-09-06T19:56:57.195Z,34.97
2022-09-06T19:59:26.001Z,30.90
2022-09-06T20:01:54.942Z,29.40
2022-09-06T20:04:24.100Z,25.47
2022-09-06T20:06:59.587Z,25.40
2022-09-06T20:09:28.663Z,22.50
2022-09-06T20:11:57.242Z,24.07
2022-09-06T20:14:26.432Z,25.00
2022-09-06T20:16:58.130Z,26.50
2022-09-06T20:19:31.876Z,26.57
2022-09-06T20:22:01.857Z,23.93
2022-09-06T20:24:30.565Z,24.30
2022-09-06T20:26:59.178Z,22.17
2022-09-06T20:29:30.196Z,20.63
2022-09-06T20:31:59.010Z,19.00
2022-09-06T20:34:27.720Z,21.60
2022-09-06T20:36:56.346Z,22.43
2022-09-06T20:39:26.491Z,29.43
2022-09-06T20:41:55.135Z,20.50
2022-09-06T20:44:23.687Z,18.60
2022-09-06T20:46:52.704Z,19.47
2022-09-06T20:49:23.094Z,19.87
2022-09-06T20:51:54.851Z,24.77
2022-09-06T20:54:23.477Z,21.27
2022-09-06T20:56:53.759Z,22.93
2022-09-06T20:59:22.542Z,23.03
2022-09-06T21:01:51.247Z,23.20
2022-09-06T21:04:19.963Z,25.43
2022-09-06T21:06:51.007Z,22.40
2022-09-06T21:09:20.005Z,22.23
2022-09-06T21:11:48.702Z,22.47
2022-09-06T21:14:18.807Z,32.87
2022-09-06T21:16:47.497Z,22.27
2022-09-06T21:19:16.444Z,21.27
2022-09-06T21:21:45.102Z,23.40
2022-09-06T21:24:16.796Z,21.50
2022-09-06T21:26:45.679Z,23.33
2022-09-06T21:29:14.427Z,27.13
2022-09-06T21:31:45.263Z,27.50
2022-09-06T21:34:16.932Z,24.80
2022-09-06T21:36:46.114Z,25.67
2022-09-06T21:39:16.157Z,24.33
2022-09-06T21:41:45.836Z,28.47
2022-09-06T21:44:14.680Z,27.93
2022-09-06T21:46:44.921Z,29.33
2022-09-06T21:49:15.152Z,26.47
2022-09-06T21:51:43.771Z,26.07
2022-09-06T21:54:12.710Z,29.63
2022-09-06T21:56:41.771Z,29.03
2022-09-06T21:59:11.214Z,27.57
2022-09-06T22:01:41.020Z,27.13
2022-09-06T22:04:11.670Z,30.90
2022-09-06T22:06:40.789Z,26.20
2022-09-06T22:09:11.548Z,23.53
2022-09-06T22:11:41.675Z,20.63
2022-09-06T22:14:12.809Z,27.00
2022-09-06T22:16:42.643Z,25.50
2022-09-06T22:19:13.181Z,23.90
2022-09-06T22:21:42.106Z,28.33
2022-09-06T22:24:12.615Z,28.07
2022-09-06T22:26:42.268Z,28.93
2022-09-06T22:29:13.634Z,28.13
2022-09-06T22:31:42.823Z,25.27
2022-09-06T22:34:13.263Z,31.27
2022-09-06T22:36:42.760Z,30.37
2022-09-06T22:39:11.591Z,29.70
2022-09-06T22:41:40.224Z,26.03
2022-09-06T22:44:08.913Z,29.23
2022-09-06T22:46:38.458Z,27.13
2022-09-06T22:49:07.297Z,27.70
2022-09-06T22:51:37.341Z,31.83
2022-09-06T22:54:06.335Z,30.73
2022-09-06T22:56:35.796Z,27.17
2022-09-06T22:59:04.647Z,32.63
2022-09-06T23:01:38.660Z,31.80
2022-09-06T23:04:08.372Z,26.70
2022-09-06T23:06:38.820Z,31.53
2022-09-06T23:09:07.835Z,25.87
2022-09-06T23:11:36.476Z,25.50
2022-09-06T23:14:05.986Z,28.03
2022-09-06T23:16:34.711Z,36.73
2022-09-06T23:19:03.370Z,42.93
2022-09-06T23:21:32.448Z,28.90
2022-09-06T23:24:02.599Z,35.00
2022-09-06T23:26:33.515Z,26.70
2022-09-06T23:29:02.210Z,34.67
2022-09-06T23:31:32.686Z,29.80
2022-09-06T23:34:02.428Z,32.50
2022-09-06T23:36:31.469Z,31.60
2022-09-06T23:39:02.583Z,28.37
2022-09-06T23:41:31.773Z,38.33
2022-09-06T23:44:00.766Z,29.47
2022-09-06T23:46:29.463Z,24.93
2022-09-06T23:49:01.091Z,25.63
2022-09-06T23:51:29.689Z,26.37
2022-09-06T23:53:58.400Z,24.07
2022-09-06T23:56:28.361Z,28.03
2022-09-06T23:58:57.124Z,34.43
